createdAt,value
2018-04-15T00:02:20.774Z,68.85
2018-04-15T00:04:49.070Z,69.01
2018-04-15T00:07:17.358Z,69.59
2018-04-15T00:09:45.653Z,69.92
2018-04-15T00:12:13.938Z,70.28
2018-04-15T00:14:42.244Z,69.69
2018-04-15T00:17:10.537Z,70.39
2018-04-15T00:19:38.818Z,70.37
2018-04-15T00:22:07.122Z,70.62
2018-04-15T00:24:35.414Z,70.41
2018-04-15T00:27:03.711Z,70.83
2018-04-15T00:29:31.994Z,71.23
2018-04-15T00:32:00.299Z,71.61
2018-04-15T00:34:28.590Z,71.51
2018-04-15T00:36:56.885Z,71.12
2018-04-15T00:39:25.170Z,71.57
2018-04-15T00:41:53.466Z,71.31
2018-04-15T00:44:21.745Z,71.27
2018-04-15T00:46:50.046Z,71.59
2018-04-15T00:49:18.330Z,72.06
2018-04-15T00:51:46.610Z,71.74
2018-04-15T00:54:17.624Z,72.11
2018-04-15T00:56:45.913Z,71.96
2018-04-15T00:59:14.202Z,72.29
2018-04-15T01:01:42.494Z,72.24
2018-04-15T01:04:10.802Z,72.99
2018-04-15T01:06:39.242Z,72.89
2018-04-15T01:09:07.534Z,73.03
2018-04-15T01:11:35.818Z,72.82
2018-04-15T01:14:04.114Z,72.83
2018-04-15T01:16:32.394Z,72.81
2018-04-15T01:19:00.695Z,72.76
2018-04-15T01:21:28.984Z,72.72
2018-04-15T01:23:57.280Z,72.79
2018-04-15T01:26:25.574Z,72.27
2018-04-15T01:28:53.859Z,72.03
2018-04-15T01:31:22.154Z,71.59
2018-04-15T01:33:50.438Z,71.97
2018-04-15T01:36:18.738Z,72.42
2018-04-15T01:38:47.035Z,71.79
2018-04-15T01:41:15.330Z,72.15
2018-04-15T01:43:43.615Z,72.13
2018-04-15T01:46:11.911Z,71.89
2018-04-15T01:48:40.199Z,72.70
2018-04-15T01:51:08.508Z,72.96
2018-04-15T01:53:36.798Z,72.30
2018-04-15T01:56:05.079Z,72.46
2018-04-15T01:58:33.366Z,72.32
2018-04-15T02:01:01.650Z,72.21
2018-04-15T02:03:29.958Z,72.45
2018-04-15T02:05:58.257Z,73.41
2018-04-15T02:08:26.550Z,72.97
2018-04-15T02:10:54.839Z,73.06
2018-04-15T02:13:23.151Z,72.88
2018-04-15T02:15:51.431Z,72.66
2018-04-15T02:18:19.722Z,72.48
2018-04-15T02:20:48.009Z,72.90
2018-04-15T02:23:16.293Z,72.60
2018-04-15T02:25:44.579Z,72.45
2018-04-15T02:28:12.858Z,73.93
2018-04-15T02:30:41.151Z,73.26
2018-04-15T02:39:04.416Z,75.05
2018-04-15T02:41:32.704Z,74.12
2018-04-15T02:44:00.998Z,73.95
2018-04-15T02:46:29.290Z,74.12
2018-04-15T02:48:57.571Z,74.15
2018-04-15T02:51:25.862Z,74.00
2018-04-15T02:53:54.142Z,73.46
2018-04-15T02:56:22.444Z,74.07
2018-04-15T02:58:50.725Z,73.79
2018-04-15T03:01:19.049Z,73.32
2018-04-15T03:03:47.331Z,73.54
2018-04-15T03:06:15.614Z,73.41
2018-04-15T03:08:43.919Z,73.21
2018-04-15T03:11:12.211Z,73.98
2018-04-15T03:13:40.506Z,74.02
2018-04-15T03:16:08.793Z,73.97
2018-04-15T03:18:37.085Z,73.88
2018-04-15T03:21:05.380Z,74.10
2018-04-15T03:23:33.677Z,73.82
2018-04-15T03:26:01.970Z,74.25
2018-04-15T03:28:30.254Z,73.75
2018-04-15T03:30:58.559Z,73.79
2018-04-15T03:33:26.857Z,73.85
2018-04-15T03:35:55.149Z,74.50
2018-04-15T03:38:23.438Z,74.39
2018-04-15T03:40:51.731Z,74.36
2018-04-15T03:43:20.012Z,74.17
2018-04-15T03:45:48.306Z,73.35
2018-04-15T03:48:16.586Z,73.99
2018-04-15T03:50:45.406Z,73.80
2018-04-15T03:53:13.738Z,74.45
2018-04-15T03:55:41.971Z,73.43
2018-04-15T03:58:10.265Z,74.48
2018-04-15T04:00:38.545Z,74.89
2018-04-15T04:03:06.846Z,74.62
2018-04-15T04:05:35.131Z,74.85
2018-04-15T04:08:03.418Z,74.91
2018-04-15T04:10:31.706Z,75.26
2018-04-15T04:13:00.001Z,75.47
2018-04-15T04:15:28.300Z,74.61
2018-04-15T04:18:08.243Z,74.80
2018-04-15T04:20:48.174Z,75.34
2018-04-15T04:23:28.030Z,75.23
2018-04-15T04:26:00.799Z,74.57
2018-04-15T04:28:29.094Z,75.75
2018-04-15T04:30:57.387Z,75.36
2018-04-15T04:33:25.665Z,75.26
2018-04-15T04:35:53.959Z,75.77
2018-04-15T04:38:22.247Z,75.14
2018-04-15T04:40:50.538Z,74.81
2018-04-15T04:43:18.818Z,75.10
2018-04-15T04:45:47.106Z,75.42
2018-04-15T04:48:15.385Z,75.62
2018-04-15T04:50:43.682Z,76.24
2018-04-15T04:53:11.967Z,75.97
2018-04-15T04:55:40.266Z,74.62
2018-04-15T04:58:08.557Z,74.73
2018-04-15T05:00:36.829Z,75.93
2018-04-15T05:03:05.134Z,75.61
2018-04-15T05:05:33.410Z,74.67
2018-04-15T05:08:01.698Z,75.65
2018-04-15T05:10:29.978Z,75.98
2018-04-15T05:12:58.278Z,76.26
2018-04-15T05:15:26.556Z,75.96
2018-04-15T05:17:54.826Z,75.70
2018-04-15T05:20:23.115Z,77.09
2018-04-15T05:22:51.393Z,77.35
2018-04-15T05:25:19.686Z,76.89
2018-04-15T05:27:47.966Z,77.78
2018-04-15T05:30:16.249Z,77.12
2018-04-15T05:32:44.529Z,77.49
2018-04-15T05:35:12.827Z,77.22
2018-04-15T05:37:41.099Z,77.21
2018-04-15T05:40:09.376Z,77.05
2018-04-15T05:42:37.657Z,77.35
2018-04-15T05:45:05.934Z,76.94
2018-04-15T05:47:34.224Z,76.96
2018-04-15T05:50:02.503Z,77.55
2018-04-15T05:52:30.782Z,77.11
2018-04-15T05:54:59.057Z,76.53
2018-04-15T05:57:27.358Z,76.50
2018-04-15T05:59:55.633Z,76.64
2018-04-15T06:02:23.908Z,77.39
2018-04-15T06:04:52.191Z,76.32
2018-04-15T06:07:20.467Z,75.92
2018-04-15T06:09:48.746Z,76.62
2018-04-15T06:12:17.024Z,76.50
2018-04-15T06:14:45.303Z,76.11
2018-04-15T06:17:13.569Z,76.03
2018-04-15T06:19:41.862Z,76.75
2018-04-15T06:22:10.137Z,76.00
2018-04-15T06:24:38.417Z,76.43
2018-04-15T06:27:06.703Z,76.33
2018-04-15T06:29:34.974Z,76.70
2018-04-15T06:32:03.279Z,76.53
2018-04-15T06:34:31.539Z,76.16
2018-04-15T06:36:59.835Z,76.61
2018-04-15T06:39:28.111Z,75.98
2018-04-15T06:41:56.382Z,75.67
2018-04-15T06:44:24.660Z,75.20
2018-04-15T06:46:52.930Z,75.74
2018-04-15T06:49:21.214Z,75.87
2018-04-15T06:51:49.754Z,75.25
2018-04-15T06:54:17.989Z,76.24
2018-04-15T06:56:46.261Z,75.59
2018-04-15T06:59:14.542Z,74.43
2018-04-15T07:01:42.822Z,75.44
2018-04-15T07:04:11.106Z,74.65
2018-04-15T07:06:39.391Z,74.56
2018-04-15T07:09:07.658Z,73.75
2018-04-15T07:11:35.942Z,73.78
2018-04-15T07:14:04.214Z,73.60
2018-04-15T07:16:32.540Z,73.82
2018-04-15T07:19:00.765Z,73.87
2018-04-15T07:21:29.052Z,74.43
2018-04-15T07:23:57.347Z,73.56
2018-04-15T07:26:25.618Z,74.08
2018-04-15T07:28:53.901Z,73.74
2018-04-15T07:31:22.170Z,73.83
2018-04-15T07:33:50.451Z,73.63
2018-04-15T07:36:18.733Z,72.74
2018-04-15T07:38:47.015Z,73.76
2018-04-15T07:41:15.278Z,73.75
2018-04-15T07:43:43.570Z,73.31
2018-04-15T07:46:11.843Z,72.56
2018-04-15T07:48:40.114Z,72.46
2018-04-15T07:51:08.411Z,71.58
2018-04-15T07:53:36.683Z,70.39
2018-04-15T07:56:04.973Z,67.29
2018-04-15T07:58:33.242Z,64.59
2018-04-15T08:01:01.535Z,65.94
2018-04-15T08:03:29.794Z,63.30
2018-04-15T08:05:58.081Z,65.74
2018-04-15T08:08:26.355Z,65.10
2018-04-15T08:10:54.625Z,64.20
2018-04-15T08:13:22.911Z,62.57
2018-04-15T08:15:51.179Z,63.02
2018-04-15T08:18:19.460Z,63.27
2018-04-15T08:20:47.737Z,62.19
2018-04-15T08:23:16.019Z,62.50
2018-04-15T08:25:44.290Z,60.70
2018-04-15T08:28:12.582Z,61.21
2018-04-15T08:30:40.849Z,60.66
2018-04-15T08:33:09.127Z,59.86
2018-04-15T08:35:37.413Z,61.58
2018-04-15T08:38:05.698Z,62.70
2018-04-15T08:40:33.974Z,61.05
2018-04-15T08:43:02.247Z,61.09
2018-04-15T08:45:30.525Z,62.08
2018-04-15T08:47:58.794Z,63.01
2018-04-15T08:50:28.698Z,61.75
2018-04-15T08:52:56.974Z,65.58
2018-04-15T08:55:25.249Z,61.90
2018-04-15T08:57:53.522Z,60.11
2018-04-15T09:00:21.791Z,56.57
2018-04-15T09:02:50.069Z,54.95
2018-04-15T09:05:18.343Z,53.10
2018-04-15T09:07:46.622Z,53.57
2018-04-15T09:10:14.905Z,53.35
2018-04-15T09:12:43.187Z,55.27
2018-04-15T09:15:11.470Z,55.07
2018-04-15T09:17:39.737Z,53.26
2018-04-15T09:20:08.022Z,50.86
2018-04-15T09:22:36.294Z,50.43
2018-04-15T09:25:04.573Z,52.69
2018-04-15T09:27:32.842Z,50.82
2018-04-15T09:30:01.132Z,50.93
2018-04-15T09:32:29.407Z,48.97
2018-04-15T09:34:57.693Z,50.13
2018-04-15T09:37:25.977Z,49.33
2018-04-15T09:39:54.257Z,50.36
2018-04-15T09:42:22.543Z,49.52
2018-04-15T09:44:50.806Z,52.60
2018-04-15T09:47:19.099Z,51.90
2018-04-15T09:49:47.386Z,50.65
2018-04-15T09:52:15.684Z,49.29
2018-04-15T09:54:43.951Z,50.85
2018-04-15T09:57:12.222Z,50.14
2018-04-15T09:59:40.542Z,48.08
2018-04-15T10:02:08.918Z,49.09
2018-04-15T10:04:37.202Z,48.89
2018-04-15T10:07:05.466Z,49.12
2018-04-15T10:09:33.746Z,49.25
2018-04-15T10:12:02.023Z,50.16
2018-04-15T10:14:30.333Z,49.40
2018-04-15T10:16:58.650Z,48.04
2018-04-15T10:19:28.542Z,48.48
2018-04-15T10:21:56.818Z,50.60
2018-04-15T10:24:25.090Z,49.77
2018-04-15T10:26:53.370Z,51.20
2018-04-15T10:29:21.654Z,51.92
2018-04-15T10:31:49.938Z,49.74
2018-04-15T10:34:18.206Z,50.19
2018-04-15T10:36:46.490Z,52.16
2018-04-15T10:39:14.762Z,50.50
2018-04-15T10:41:43.050Z,50.40
2018-04-15T10:44:11.318Z,49.49
2018-04-15T10:46:39.593Z,50.92
2018-04-15T10:49:07.866Z,53.10
2018-04-15T10:51:36.142Z,50.55
2018-04-15T10:54:04.426Z,50.14
2018-04-15T10:56:32.703Z,48.55
2018-04-15T10:59:00.980Z,49.64
2018-04-15T11:01:29.258Z,46.71
2018-04-15T11:03:57.550Z,43.52
2018-04-15T11:06:25.827Z,44.51
2018-04-15T11:08:54.106Z,46.07
2018-04-15T11:11:22.389Z,43.59
2018-04-15T11:13:50.665Z,42.65
2018-04-15T11:16:18.947Z,43.07
2018-04-15T11:18:47.218Z,42.62
2018-04-15T11:21:15.504Z,44.76
2018-04-15T11:23:43.773Z,45.76
2018-04-15T11:26:12.057Z,44.99
2018-04-15T11:28:40.326Z,45.97
2018-04-15T11:31:08.639Z,46.03
2018-04-15T11:33:36.881Z,44.66
2018-04-15T11:36:05.157Z,45.21
2018-04-15T11:38:33.436Z,44.98
2018-04-15T11:41:01.706Z,44.25
2018-04-15T11:43:30.715Z,42.53
2018-04-15T11:45:58.985Z,40.68
2018-04-15T11:48:27.295Z,41.09
2018-04-15T11:50:55.574Z,40.45
2018-04-15T11:53:23.834Z,41.21
2018-04-15T11:55:52.125Z,40.92
2018-04-15T11:58:20.399Z,41.63
2018-04-15T12:00:48.687Z,42.90
2018-04-15T12:03:16.966Z,43.30
2018-04-15T12:05:45.251Z,43.19
2018-04-15T12:08:13.514Z,44.76
2018-04-15T12:10:41.806Z,43.48
2018-04-15T12:13:10.078Z,43.24
2018-04-15T12:15:38.346Z,42.42
2018-04-15T12:18:06.633Z,42.67
2018-04-15T12:20:34.902Z,42.34
2018-04-15T12:23:03.232Z,42.07
2018-04-15T12:25:31.512Z,41.99
2018-04-15T12:27:59.800Z,40.26
2018-04-15T12:30:28.074Z,40.22
2018-04-15T12:32:56.354Z,40.33
2018-04-15T12:35:24.643Z,40.43
2018-04-15T12:37:52.914Z,40.64
2018-04-15T12:40:21.198Z,43.36
2018-04-15T12:42:49.472Z,44.20
2018-04-15T12:45:17.747Z,43.85
2018-04-15T12:47:46.059Z,43.97
2018-04-15T12:50:14.322Z,43.35
2018-04-15T12:52:42.618Z,44.31
2018-04-15T12:55:10.889Z,42.80
2018-04-15T12:57:39.170Z,42.35
2018-04-15T13:00:07.449Z,42.98
2018-04-15T13:02:35.735Z,42.86
2018-04-15T13:05:04.011Z,42.68
2018-04-15T13:07:32.312Z,43.29
2018-04-15T13:10:00.582Z,43.36
2018-04-15T13:12:28.858Z,42.91
2018-04-15T13:14:57.158Z,42.74
2018-04-15T13:17:25.442Z,43.26
2018-04-15T13:19:53.723Z,41.86
2018-04-15T13:22:22.009Z,41.89
2018-04-15T13:24:50.292Z,43.33
2018-04-15T13:27:18.575Z,43.36
2018-04-15T13:29:46.854Z,43.21
2018-04-15T13:32:15.118Z,42.43
2018-04-15T13:34:43.393Z,42.31
2018-04-15T13:37:11.682Z,41.89
2018-04-15T13:39:39.955Z,42.05
2018-04-15T13:42:08.235Z,41.66
2018-04-15T13:44:36.509Z,41.35
2018-04-15T13:47:04.800Z,41.75
2018-04-15T13:49:33.095Z,42.30
2018-04-15T13:52:01.354Z,43.00
2018-04-15T13:54:29.638Z,42.01
2018-04-15T13:56:57.915Z,42.36
2018-04-15T13:59:26.194Z,40.49
2018-04-15T14:01:54.478Z,40.25
2018-04-15T14:04:22.758Z,39.14
2018-04-15T14:06:51.033Z,40.18
2018-04-15T14:09:19.354Z,39.37
2018-04-15T14:11:47.622Z,39.25
2018-04-15T14:14:15.885Z,38.03
2018-04-15T14:16:44.171Z,38.30
2018-04-15T14:19:12.458Z,38.71
2018-04-15T14:21:40.746Z,38.89
2018-04-15T14:24:09.026Z,38.69
2018-04-15T14:26:37.298Z,39.08
2018-04-15T14:29:05.579Z,38.63
2018-04-15T14:31:33.854Z,38.57
2018-04-15T14:34:02.137Z,37.67
2018-04-15T14:36:30.406Z,38.11
2018-04-15T14:38:58.696Z,38.01
2018-04-15T14:41:26.970Z,38.84
2018-04-15T14:43:55.245Z,39.18
2018-04-15T14:46:23.540Z,39.31
2018-04-15T14:48:51.813Z,40.08
2018-04-15T14:51:20.102Z,38.46
2018-04-15T14:53:48.374Z,39.06
2018-04-15T14:56:16.678Z,38.15
2018-04-15T14:58:44.934Z,37.93
2018-04-15T15:01:13.205Z,39.96
2018-04-15T15:03:41.478Z,38.68
2018-04-15T15:06:09.754Z,38.57
2018-04-15T15:08:38.051Z,38.90
2018-04-15T15:11:06.316Z,38.90
2018-04-15T15:13:34.646Z,38.43
2018-04-15T15:16:02.878Z,38.50
2018-04-15T15:18:31.150Z,38.47
2018-04-15T15:20:59.431Z,37.90
2018-04-15T15:23:27.706Z,38.57
2018-04-15T15:25:55.984Z,38.89
2018-04-15T15:28:24.285Z,37.76
2018-04-15T15:30:52.567Z,37.37
2018-04-15T15:33:20.826Z,37.91
2018-04-15T15:35:49.102Z,37.98
2018-04-15T15:38:17.380Z,38.11
2018-04-15T15:40:45.646Z,39.16
2018-04-15T15:43:13.946Z,38.38
2018-04-15T15:45:42.214Z,38.37
2018-04-15T15:48:10.498Z,38.72
2018-04-15T15:50:38.775Z,37.87
2018-04-15T15:53:07.051Z,38.50
2018-04-15T15:55:35.341Z,37.73
2018-04-15T15:58:03.610Z,37.87
2018-04-15T16:00:31.894Z,38.37
2018-04-15T16:03:00.166Z,38.34
2018-04-15T16:05:34.329Z,38.57
2018-04-15T16:08:02.610Z,39.29
2018-04-15T16:10:30.890Z,38.13
2018-04-15T16:12:59.172Z,38.51
2018-04-15T16:15:27.439Z,39.01
2018-04-15T16:17:55.724Z,40.17
2018-04-15T16:20:24.007Z,39.33
2018-04-15T16:22:52.314Z,39.59
2018-04-15T16:25:20.591Z,39.76
2018-04-15T16:27:48.870Z,40.01
2018-04-15T16:30:17.147Z,40.89
2018-04-15T16:32:45.430Z,40.25
2018-04-15T16:35:13.710Z,41.63
2018-04-15T16:37:41.987Z,40.91
2018-04-15T16:40:10.302Z,40.98
2018-04-15T16:42:38.582Z,40.83
2018-04-15T16:45:06.916Z,40.06
2018-04-15T16:47:35.222Z,40.61
2018-04-15T16:50:03.541Z,40.79
2018-04-15T16:52:31.841Z,41.61
2018-04-15T16:55:00.131Z,41.52
2018-04-15T16:57:28.399Z,41.85
2018-04-15T16:59:56.714Z,42.18
2018-04-15T17:02:24.950Z,42.06
2018-04-15T17:04:53.230Z,41.72
2018-04-15T17:07:21.502Z,42.51
2018-04-15T17:09:49.789Z,42.80
2018-04-15T17:12:18.066Z,42.96
2018-04-15T17:14:46.344Z,42.61
2018-04-15T17:17:14.626Z,42.75
2018-04-15T17:19:42.906Z,43.09
2018-04-15T17:22:11.178Z,44.52
2018-04-15T17:24:39.460Z,45.19
2018-04-15T17:27:07.760Z,44.79
2018-04-15T17:29:36.023Z,44.95
2018-04-15T17:32:04.296Z,44.55
2018-04-15T17:34:32.588Z,44.28
2018-04-15T17:37:00.856Z,44.55
2018-04-15T17:39:29.155Z,44.59
2018-04-15T17:41:57.423Z,44.49
2018-04-15T17:44:25.757Z,44.19
2018-04-15T17:46:53.984Z,44.43
2018-04-15T17:49:22.251Z,45.04
2018-04-15T17:51:50.866Z,45.34
2018-04-15T17:54:19.139Z,45.45
2018-04-15T17:56:47.440Z,45.46
2018-04-15T17:59:15.718Z,45.55
2018-04-15T18:01:43.990Z,45.70
2018-04-15T18:04:12.270Z,46.07
2018-04-15T18:06:40.546Z,46.87
2018-04-15T18:09:08.852Z,47.04
2018-04-15T18:11:37.118Z,47.18
2018-04-15T18:14:05.397Z,47.08
2018-04-15T18:16:33.686Z,49.25
2018-04-15T18:19:01.961Z,47.87
2018-04-15T18:21:30.308Z,48.41
2018-04-15T18:23:58.565Z,47.88
2018-04-15T18:26:26.834Z,48.57
2018-04-15T18:28:55.102Z,48.84
2018-04-15T18:31:23.378Z,48.96
2018-04-15T18:33:51.662Z,49.29
2018-04-15T18:36:19.933Z,49.43
2018-04-15T18:38:48.217Z,48.84
2018-04-15T18:41:16.527Z,49.56
2018-04-15T18:43:44.866Z,49.79
2018-04-15T18:46:13.135Z,50.28
2018-04-15T18:48:41.413Z,50.46
2018-04-15T18:51:09.690Z,50.52
2018-04-15T18:53:37.979Z,50.98
2018-04-15T18:56:06.250Z,51.00
2018-04-15T18:58:34.523Z,51.05
2018-04-15T19:01:02.801Z,51.56
2018-04-15T19:03:31.085Z,52.04
2018-04-15T19:05:59.394Z,52.31
2018-04-15T19:08:27.671Z,52.83
2018-04-15T19:10:55.950Z,52.97
2018-04-15T19:13:24.243Z,53.66
2018-04-15T19:15:52.520Z,54.13
2018-04-15T19:18:20.874Z,54.72
2018-04-15T19:20:49.120Z,54.15
2018-04-15T19:23:17.398Z,54.69
2018-04-15T19:25:45.679Z,54.40
2018-04-15T19:28:13.950Z,54.72
2018-04-15T19:30:42.242Z,55.71
2018-04-15T19:33:10.518Z,56.02
2018-04-15T19:35:38.811Z,55.94
2018-04-15T19:38:07.095Z,56.00
2018-04-15T19:40:35.362Z,56.52
2018-04-15T19:43:03.638Z,56.82
2018-04-15T19:45:31.915Z,56.83
2018-04-15T19:48:00.199Z,57.04
2018-04-15T19:50:29.382Z,57.01
2018-04-15T19:52:57.678Z,57.54
2018-04-15T19:55:25.957Z,57.95
2018-04-15T19:57:54.249Z,57.63
2018-04-15T20:00:22.519Z,57.61
2018-04-15T20:02:50.841Z,58.05
2018-04-15T20:05:19.114Z,57.75
2018-04-15T20:07:47.362Z,57.91
2018-04-15T20:10:15.680Z,57.82
2018-04-15T20:12:43.923Z,57.59
2018-04-15T20:15:12.207Z,57.84
2018-04-15T20:17:40.495Z,58.40
2018-04-15T20:20:08.766Z,58.91
2018-04-15T20:22:37.052Z,59.23
2018-04-15T20:25:05.330Z,59.51
2018-04-15T20:27:33.621Z,59.79
2018-04-15T20:30:01.936Z,59.54
2018-04-15T20:32:30.170Z,59.64
2018-04-15T20:34:58.446Z,59.75
2018-04-15T20:37:26.736Z,60.43
2018-04-15T20:39:55.006Z,60.40
2018-04-15T20:42:23.390Z,59.64
2018-04-15T20:44:51.693Z,59.76
2018-04-15T20:47:19.961Z,59.75
2018-04-15T20:49:48.226Z,59.69
2018-04-15T20:52:17.502Z,59.60
2018-04-15T20:54:45.787Z,59.72
2018-04-15T20:57:14.070Z,59.97
2018-04-15T20:59:42.358Z,59.75
2018-04-15T21:02:10.643Z,60.08
2018-04-15T21:04:38.953Z,59.88
2018-04-15T21:07:07.230Z,60.17
2018-04-15T21:09:35.520Z,60.99
2018-04-15T21:12:03.807Z,61.04
2018-04-15T21:14:32.078Z,61.17
2018-04-15T21:17:00.354Z,61.22
2018-04-15T21:19:28.651Z,61.12
2018-04-15T21:21:56.918Z,61.13
2018-04-15T21:24:25.198Z,61.05
2018-04-15T21:26:53.475Z,60.63
2018-04-15T21:29:21.764Z,60.73
2018-04-15T21:31:50.214Z,60.88
2018-04-15T21:34:18.454Z,60.91
2018-04-15T21:36:46.730Z,61.46
2018-04-15T21:39:15.019Z,60.90
2018-04-15T21:41:44.298Z,61.13
2018-04-15T21:44:13.298Z,61.22
2018-04-15T21:46:41.607Z,61.67
2018-04-15T21:49:09.888Z,62.08
2018-04-15T21:51:38.166Z,62.29
2018-04-15T21:54:06.451Z,62.02
2018-04-15T21:56:34.727Z,62.67
2018-04-15T21:59:03.014Z,62.82
2018-04-15T22:01:31.287Z,62.55
2018-04-15T22:03:59.574Z,62.69
2018-04-15T22:06:27.847Z,63.17
2018-04-15T22:08:56.114Z,62.76
2018-04-15T22:11:36.197Z,63.26
2018-04-15T22:14:04.466Z,63.09
2018-04-15T22:16:34.520Z,63.92
2018-04-15T22:19:02.796Z,64.23
2018-04-15T22:21:31.091Z,64.69
2018-04-15T22:23:59.364Z,65.16
2018-04-15T22:26:27.640Z,64.87
2018-04-15T22:28:55.919Z,65.28
2018-04-15T22:31:24.190Z,64.77
2018-04-15T22:33:52.486Z,63.91
2018-04-15T22:36:20.758Z,63.86
2018-04-15T22:38:49.062Z,63.59
2018-04-15T22:41:17.339Z,64.28
2018-04-15T22:43:45.619Z,64.54
2018-04-15T22:46:13.919Z,64.38
2018-04-15T22:48:45.112Z,63.58
2018-04-15T22:51:13.389Z,63.59
2018-04-15T22:53:41.676Z,64.61
2018-04-15T22:56:09.956Z,64.55
2018-04-15T22:58:43.839Z,64.48
2018-04-15T23:01:12.130Z,65.25
2018-04-15T23:03:40.405Z,66.18
2018-04-15T23:06:08.682Z,66.22
2018-04-15T23:08:36.994Z,66.65
2018-04-15T23:11:05.276Z,66.73
2018-04-15T23:13:33.554Z,67.31
2018-04-15T23:16:01.835Z,66.50
2018-04-15T23:18:30.122Z,66.58
2018-04-15T23:20:58.403Z,66.05
2018-04-15T23:23:26.670Z,66.77
2018-04-15T23:25:54.946Z,65.69
2018-04-15T23:28:23.226Z,66.08
2018-04-15T23:30:51.510Z,66.13
2018-04-15T23:33:19.782Z,66.13
2018-04-15T23:35:48.086Z,66.58
2018-04-15T23:38:16.365Z,67.12
2018-04-15T23:40:44.646Z,66.72
2018-04-15T23:43:12.931Z,66.24
2018-04-15T23:45:41.951Z,66.78
2018-04-15T23:48:10.267Z,66.33
2018-04-15T23:50:38.534Z,66.50
2018-04-15T23:53:06.810Z,66.20
2018-04-15T23:55:35.092Z,65.59
2018-04-15T23:58:03.367Z,66.05
